createdAt,value
2022-08-26T00:01:53.742Z,68.08
2022-08-26T00:04:22.124Z,67.99
2022-08-26T00:06:49.102Z,67.88
2022-08-26T00:09:16.862Z,68.12
2022-08-26T00:11:45.360Z,67.98
2022-08-26T00:14:14.166Z,68.40
2022-08-26T00:16:48.116Z,68.49
2022-08-26T00:19:18.192Z,68.11
2022-08-26T00:21:48.579Z,68.54
2022-08-26T00:24:17.852Z,68.48
2022-08-26T00:26:44.802Z,67.91
2022-08-26T00:29:12.207Z,68.29
2022-08-26T00:31:39.892Z,68.17
2022-08-26T00:34:09.366Z,68.01
2022-08-26T00:36:37.204Z,68.75
2022-08-26T00:39:06.994Z,67.97
2022-08-26T00:41:36.788Z,68.13
2022-08-26T00:44:04.264Z,68.32
2022-08-26T00:46:36.069Z,68.70
2022-08-26T00:49:35.977Z,67.96
2022-08-26T00:52:09.784Z,68.01
2022-08-26T00:54:46.761Z,68.22
2022-08-26T00:57:18.024Z,68.33
2022-08-26T00:59:57.041Z,68.64
2022-08-26T01:02:24.506Z,68.40
2022-08-26T01:04:56.018Z,68.52
2022-08-26T01:07:26.200Z,68.40
2022-08-26T01:09:55.168Z,68.35
2022-08-26T01:12:24.637Z,68.24
2022-08-26T01:14:52.135Z,67.86
2022-08-26T01:17:19.099Z,68.19
2022-08-26T01:19:51.443Z,67.70
2022-08-26T01:23:03.123Z,67.68
2022-08-26T01:25:33.966Z,68.15
2022-08-26T01:28:06.619Z,68.37
2022-08-26T01:30:35.670Z,68.18
2022-08-26T01:33:07.092Z,68.76
2022-08-26T01:35:34.208Z,69.36
2022-08-26T01:38:02.266Z,70.09
2022-08-26T01:40:36.193Z,69.62
2022-08-26T01:43:06.541Z,70.16
2022-08-26T01:45:35.936Z,70.89
2022-08-26T01:48:09.101Z,70.98
2022-08-26T01:50:38.616Z,70.91
2022-08-26T01:53:10.663Z,70.61
2022-08-26T01:55:43.576Z,70.18
2022-08-26T01:58:23.813Z,69.79
2022-08-26T02:00:51.782Z,69.47
2022-08-26T02:03:22.235Z,69.89
2022-08-26T02:05:57.425Z,69.55
2022-08-26T02:08:49.223Z,69.21
2022-08-26T02:11:18.408Z,69.73
2022-08-26T02:13:50.817Z,69.44
2022-08-26T02:16:22.788Z,69.46
2022-08-26T02:18:52.782Z,69.09
2022-08-26T02:21:20.547Z,68.84
2022-08-26T02:23:47.616Z,69.13
2022-08-26T02:26:21.197Z,69.14
2022-08-26T02:29:03.896Z,68.82
2022-08-26T02:31:31.279Z,69.38
2022-08-26T02:34:20.308Z,69.60
2022-08-26T02:36:47.203Z,69.91
2022-08-26T02:39:18.009Z,69.59
2022-08-26T02:41:49.757Z,69.92
2022-08-26T02:44:16.709Z,70.64
2022-08-26T02:46:46.808Z,70.52
2022-08-26T02:49:16.296Z,71.08
2022-08-26T02:51:44.118Z,70.44
2022-08-26T02:54:11.106Z,70.74
2022-08-26T02:56:38.058Z,70.17
2022-08-26T02:59:05.759Z,70.73
2022-08-26T03:01:36.046Z,70.53
2022-08-26T03:04:06.340Z,70.98
2022-08-26T03:06:33.280Z,71.30
2022-08-26T03:09:00.171Z,71.69
2022-08-26T03:11:32.305Z,72.38
2022-08-26T03:14:01.737Z,72.45
2022-08-26T03:16:35.726Z,72.46
2022-08-26T03:19:06.002Z,72.47
2022-08-26T03:21:33.357Z,72.55
2022-08-26T03:24:00.494Z,73.01
2022-08-26T03:26:29.036Z,73.05
2022-08-26T03:29:15.163Z,72.43
2022-08-26T03:31:43.708Z,72.22
2022-08-26T03:34:14.142Z,72.47
2022-08-26T03:36:42.123Z,72.03
2022-08-26T03:39:10.994Z,71.78
2022-08-26T03:41:39.040Z,71.88
2022-08-26T03:44:08.876Z,71.97
2022-08-26T03:46:36.386Z,71.68
2022-08-26T03:49:05.976Z,71.42
2022-08-26T03:51:34.674Z,71.81
2022-08-26T03:54:08.369Z,71.54
2022-08-26T03:56:36.542Z,71.36
2022-08-26T03:59:04.595Z,71.30
2022-08-26T04:01:31.591Z,71.28
2022-08-26T04:04:00.507Z,71.41
2022-08-26T04:06:35.564Z,72.01
2022-08-26T04:09:07.829Z,71.21
2022-08-26T04:11:37.841Z,71.40
2022-08-26T04:14:10.718Z,71.06
2022-08-26T04:16:38.537Z,71.51
2022-08-26T04:19:06.566Z,71.07
2022-08-26T04:21:35.327Z,70.65
2022-08-26T04:24:03.700Z,70.91
2022-08-26T04:26:39.455Z,70.96
2022-08-26T04:29:20.604Z,71.30
2022-08-26T04:31:50.560Z,71.32
2022-08-26T04:34:24.620Z,71.51
2022-08-26T04:36:54.659Z,70.98
2022-08-26T04:39:21.593Z,71.63
2022-08-26T04:41:50.733Z,71.22
2022-08-26T04:44:18.645Z,70.85
2022-08-26T04:46:45.677Z,71.17
2022-08-26T04:49:13.568Z,71.29
2022-08-26T04:51:40.653Z,71.22
2022-08-26T04:54:08.038Z,70.85
2022-08-26T04:56:39.167Z,71.42
2022-08-26T04:59:16.825Z,70.88
2022-08-26T05:01:46.614Z,70.79
2022-08-26T05:04:13.784Z,70.61
2022-08-26T05:06:43.603Z,70.65
2022-08-26T05:09:10.556Z,70.39
2022-08-26T05:11:38.387Z,70.50
2022-08-26T05:14:06.046Z,70.70
2022-08-26T05:16:33.300Z,70.72
2022-08-26T05:19:00.263Z,70.42
2022-08-26T05:21:29.069Z,69.80
2022-08-26T05:23:56.622Z,70.20
2022-08-26T05:26:30.615Z,70.21
2022-08-26T05:28:58.240Z,70.33
2022-08-26T05:31:31.747Z,70.00
2022-08-26T05:34:00.414Z,70.29
2022-08-26T05:36:33.489Z,70.29
2022-08-26T05:39:03.605Z,69.83
2022-08-26T05:41:36.650Z,69.82
2022-08-26T05:44:10.354Z,69.71
2022-08-26T05:46:38.316Z,69.95
2022-08-26T05:49:12.663Z,70.02
2022-08-26T05:51:45.117Z,70.11
2022-08-26T05:54:13.366Z,69.89
2022-08-26T05:56:40.275Z,69.76
2022-08-26T05:59:14.709Z,69.39
2022-08-26T06:01:43.529Z,69.85
2022-08-26T06:04:11.658Z,69.43
2022-08-26T06:06:41.375Z,69.56
2022-08-26T06:09:10.884Z,69.56
2022-08-26T06:11:38.829Z,69.50
2022-08-26T06:14:07.912Z,69.02
2022-08-26T06:16:40.968Z,68.75
2022-08-26T06:19:11.692Z,69.29
2022-08-26T06:21:42.043Z,68.54
2022-08-26T06:24:31.649Z,69.01
2022-08-26T06:27:04.873Z,68.25
2022-08-26T06:29:34.550Z,69.00
2022-08-26T06:32:04.524Z,69.21
2022-08-26T06:34:31.752Z,69.82
2022-08-26T06:37:02.730Z,70.47
2022-08-26T06:39:31.853Z,70.54
2022-08-26T06:42:03.209Z,71.08
2022-08-26T06:44:34.394Z,70.32
2022-08-26T06:47:01.483Z,70.69
2022-08-26T06:49:28.484Z,70.75
2022-08-26T06:51:58.957Z,70.74
2022-08-26T06:54:32.369Z,70.54
2022-08-26T06:56:59.616Z,70.38
2022-08-26T06:59:27.136Z,69.94
2022-08-26T07:01:54.902Z,70.21
2022-08-26T07:04:23.212Z,70.36
2022-08-26T07:06:52.944Z,70.42
2022-08-26T07:09:23.709Z,69.60
2022-08-26T07:11:51.863Z,70.13
2022-08-26T07:14:21.455Z,69.55
2022-08-26T07:16:49.981Z,69.53
2022-08-26T07:19:30.146Z,70.04
2022-08-26T07:22:05.517Z,69.31
2022-08-26T07:24:35.354Z,69.16
2022-08-26T07:27:06.203Z,68.93
2022-08-26T07:29:34.933Z,68.79
2022-08-26T07:32:02.468Z,69.19
2022-08-26T07:34:29.877Z,69.26
2022-08-26T07:36:56.985Z,68.76
2022-08-26T07:39:25.197Z,68.68
2022-08-26T07:41:52.879Z,69.10
2022-08-26T07:44:19.867Z,68.33
2022-08-26T07:46:52.108Z,68.13
2022-08-26T07:49:22.639Z,68.66
2022-08-26T07:51:51.168Z,68.65
2022-08-26T07:54:18.649Z,68.31
2022-08-26T07:56:46.888Z,68.58
2022-08-26T07:59:14.942Z,68.39
2022-08-26T08:01:45.107Z,67.73
2022-08-26T08:04:18.881Z,68.53
2022-08-26T08:06:52.538Z,68.16
2022-08-26T08:09:19.497Z,67.55
2022-08-26T08:11:49.862Z,67.67
2022-08-26T08:14:18.558Z,66.85
2022-08-26T08:16:54.425Z,66.54
2022-08-26T08:19:23.915Z,66.41
2022-08-26T08:21:54.565Z,66.54
2022-08-26T08:24:21.993Z,66.58
2022-08-26T08:26:48.913Z,66.04
2022-08-26T08:29:15.821Z,66.13
2022-08-26T08:31:56.524Z,65.71
2022-08-26T08:34:28.298Z,65.67
2022-08-26T08:36:57.111Z,66.23
2022-08-26T08:39:25.495Z,65.93
2022-08-26T08:42:23.427Z,65.19
2022-08-26T08:44:53.338Z,66.06
2022-08-26T08:47:54.618Z,65.11
2022-08-26T08:50:33.959Z,65.18
2022-08-26T08:53:34.511Z,64.63
2022-08-26T08:56:15.781Z,63.89
2022-08-26T08:58:59.516Z,63.71
2022-08-26T09:01:45.541Z,63.51
2022-08-26T09:04:29.978Z,63.94
2022-08-26T09:07:00.138Z,65.23
2022-08-26T09:09:39.803Z,65.90
2022-08-26T09:12:21.425Z,65.28
2022-08-26T09:15:30.441Z,65.42
2022-08-26T09:18:30.188Z,65.35
2022-08-26T09:21:05.052Z,64.66
2022-08-26T09:23:36.444Z,64.69
2022-08-26T09:26:20.229Z,64.47
2022-08-26T09:29:27.080Z,63.89
2022-08-26T09:32:19.537Z,64.25
2022-08-26T09:35:02.209Z,63.23
2022-08-26T09:40:26.873Z,63.75
2022-08-26T09:43:22.073Z,63.45
2022-08-26T09:45:59.065Z,64.15
2022-08-26T09:48:35.565Z,63.57
2022-08-26T09:51:23.999Z,63.25
2022-08-26T09:53:58.376Z,62.53
2022-08-26T09:56:39.385Z,62.81
2022-08-26T09:59:12.021Z,62.32
2022-08-26T10:01:44.053Z,61.72
2022-08-26T10:04:20.665Z,62.66
2022-08-26T10:07:07.346Z,62.27
2022-08-26T10:09:40.870Z,62.26
2022-08-26T10:12:15.343Z,62.03
2022-08-26T10:15:09.068Z,62.27
2022-08-26T10:17:49.783Z,61.92
2022-08-26T10:20:27.505Z,61.68
2022-08-26T10:23:18.031Z,60.69
2022-08-26T10:25:57.003Z,61.07
2022-08-26T10:28:52.716Z,61.04
2022-08-26T10:31:27.928Z,60.79
2022-08-26T10:33:58.794Z,59.43
2022-08-26T10:37:15.065Z,58.89
2022-08-26T10:40:03.768Z,58.94
2022-08-26T10:42:39.152Z,58.21
2022-08-26T10:45:15.020Z,58.02
2022-08-26T10:48:06.488Z,56.12
2022-08-26T10:50:38.826Z,56.54
2022-08-26T10:53:17.211Z,56.15
2022-08-26T10:56:41.198Z,56.17
2022-08-26T10:59:30.868Z,55.99
2022-08-26T11:02:15.371Z,56.78
2022-08-26T11:04:57.770Z,55.78
2022-08-26T11:07:39.686Z,55.23
2022-08-26T11:10:20.516Z,55.06
2022-08-26T11:13:04.611Z,54.76
2022-08-26T11:15:31.704Z,54.69
2022-08-26T11:18:05.956Z,53.99
2022-08-26T11:20:47.159Z,54.79
2022-08-26T11:23:14.412Z,54.38
2022-08-26T11:25:57.036Z,54.56
2022-08-26T11:28:45.076Z,53.54
2022-08-26T11:31:37.632Z,52.59
2022-08-26T11:34:10.923Z,52.58
2022-08-26T11:36:45.599Z,52.67
2022-08-26T11:39:55.039Z,52.51
2022-08-26T11:42:40.928Z,52.63
2022-08-26T11:45:31.590Z,52.78
2022-08-26T11:47:58.841Z,52.26
2022-08-26T11:50:28.455Z,52.36
2022-08-26T11:53:02.001Z,52.45
2022-08-26T11:55:35.600Z,51.77
2022-08-26T11:58:06.423Z,51.50
2022-08-26T12:00:58.977Z,51.55
2022-08-26T12:03:44.187Z,51.92
2022-08-26T12:06:46.393Z,51.76
2022-08-26T12:09:34.347Z,51.16
2022-08-26T12:12:34.168Z,51.81
2022-08-26T12:15:22.715Z,52.08
2022-08-26T12:17:54.595Z,51.49
2022-08-26T12:20:46.467Z,51.98
2022-08-26T12:23:41.277Z,51.56
2022-08-26T12:26:23.438Z,51.73
2022-08-26T12:29:19.886Z,51.47
2022-08-26T12:31:47.984Z,51.35
2022-08-26T12:34:17.944Z,52.23
2022-08-26T12:36:55.799Z,51.77
2022-08-26T12:39:36.238Z,51.39
2022-08-26T12:42:17.514Z,51.94
2022-08-26T12:44:53.946Z,51.66
2022-08-26T12:47:43.566Z,51.83
2022-08-26T12:50:33.626Z,50.81
2022-08-26T12:53:09.421Z,50.84
2022-08-26T12:56:05.403Z,51.48
2022-08-26T12:58:36.184Z,51.40
2022-08-26T13:01:08.793Z,51.96
2022-08-26T13:03:38.539Z,51.22
2022-08-26T13:06:31.137Z,50.78
2022-08-26T13:09:25.309Z,50.01
2022-08-26T13:11:54.932Z,49.44
2022-08-26T13:14:24.678Z,49.17
2022-08-26T13:16:53.107Z,49.50
2022-08-26T13:19:25.377Z,48.73
2022-08-26T13:22:00.642Z,48.90
2022-08-26T13:24:38.603Z,49.04
2022-08-26T13:27:07.778Z,49.39
2022-08-26T13:29:35.127Z,48.88
2022-08-26T13:32:02.315Z,49.03
2022-08-26T13:34:30.851Z,49.24
2022-08-26T13:36:59.141Z,49.81
2022-08-26T13:39:26.768Z,49.14
2022-08-26T13:41:54.738Z,49.45
2022-08-26T13:44:21.771Z,49.85
2022-08-26T13:46:49.088Z,49.55
2022-08-26T13:49:16.106Z,50.24
2022-08-26T13:51:43.103Z,49.64
2022-08-26T13:54:10.059Z,50.02
2022-08-26T13:56:37.443Z,50.31
2022-08-26T13:59:05.565Z,50.31
2022-08-26T14:01:35.347Z,49.63
2022-08-26T14:04:03.053Z,50.14
2022-08-26T14:06:30.155Z,50.39
2022-08-26T14:08:57.415Z,50.07
2022-08-26T14:11:24.966Z,50.24
2022-08-26T14:13:52.340Z,49.84
2022-08-26T14:16:31.440Z,50.49
2022-08-26T14:19:01.221Z,50.36
2022-08-26T14:21:34.499Z,50.28
2022-08-26T14:24:01.478Z,50.57
2022-08-26T14:26:29.824Z,51.00
2022-08-26T14:29:02.621Z,51.06
2022-08-26T14:31:31.697Z,51.29
2022-08-26T14:34:04.291Z,51.31
2022-08-26T14:36:32.363Z,51.23
2022-08-26T14:39:05.042Z,51.09
2022-08-26T14:41:33.675Z,51.58
2022-08-26T14:44:05.890Z,51.97
2022-08-26T14:46:43.121Z,51.74
2022-08-26T14:49:10.855Z,51.96
2022-08-26T14:51:38.999Z,51.54
2022-08-26T14:54:12.039Z,51.59
2022-08-26T14:56:48.814Z,51.36
2022-08-26T14:59:38.604Z,51.53
2022-08-26T15:02:13.792Z,51.76
2022-08-26T15:04:45.065Z,51.88
2022-08-26T15:07:12.636Z,51.68
2022-08-26T15:09:39.851Z,51.93
2022-08-26T15:12:06.907Z,52.31
2022-08-26T15:14:34.291Z,52.28
2022-08-26T15:17:01.253Z,52.74
2022-08-26T15:19:28.429Z,52.63
2022-08-26T15:21:56.579Z,52.59
2022-08-26T15:24:25.862Z,52.87
2022-08-26T15:26:53.395Z,52.55
2022-08-26T15:29:20.987Z,49.00
2022-08-26T15:31:48.679Z,48.45
2022-08-26T15:34:17.147Z,48.62
2022-08-26T15:36:46.264Z,47.92
2022-08-26T15:39:15.284Z,48.63
2022-08-26T15:41:42.203Z,49.23
2022-08-26T15:44:10.493Z,49.84
2022-08-26T15:46:38.617Z,50.42
2022-08-26T15:49:07.051Z,50.85
2022-08-26T15:51:45.673Z,51.61
2022-08-26T15:54:15.950Z,51.91
2022-08-26T15:56:43.607Z,53.12
2022-08-26T15:59:11.497Z,53.25
2022-08-26T16:01:38.810Z,53.30
2022-08-26T16:04:05.864Z,53.40
2022-08-26T16:06:36.049Z,53.57
2022-08-26T16:09:03.834Z,53.36
2022-08-26T16:11:31.166Z,54.81
2022-08-26T16:13:58.330Z,55.43
2022-08-26T16:16:25.255Z,55.88
2022-08-26T16:18:52.415Z,56.29
2022-08-26T16:21:24.606Z,56.59
2022-08-26T16:23:52.209Z,56.57
2022-08-26T16:26:24.152Z,56.96
2022-08-26T16:28:51.201Z,57.31
2022-08-26T16:31:18.694Z,57.36
2022-08-26T16:33:46.231Z,58.09
2022-08-26T16:36:14.264Z,58.39
2022-08-26T16:38:41.653Z,58.31
2022-08-26T16:41:08.671Z,58.03
2022-08-26T16:43:36.037Z,58.36
2022-08-26T16:46:06.940Z,58.30
2022-08-26T16:48:35.236Z,58.56
2022-08-26T16:51:02.154Z,58.18
2022-08-26T16:53:29.098Z,57.88
2022-08-26T16:55:56.025Z,58.68
2022-08-26T16:58:23.000Z,58.22
2022-08-26T17:00:50.161Z,57.62
2022-08-26T17:03:17.344Z,58.13
2022-08-26T17:05:44.514Z,58.42
2022-08-26T17:08:13.775Z,58.64
2022-08-26T17:13:10.479Z,58.61
2022-08-26T17:15:37.542Z,58.41
2022-08-26T17:18:05.092Z,58.88
2022-08-26T17:20:32.311Z,58.32
2022-08-26T17:22:59.376Z,58.60
2022-08-26T17:25:31.632Z,58.81
2022-08-26T17:27:59.600Z,59.14
2022-08-26T17:30:27.034Z,59.27
2022-08-26T17:32:55.044Z,58.96
2022-08-26T17:35:22.748Z,59.40
2022-08-26T17:37:49.720Z,59.69
2022-08-26T17:40:21.018Z,59.62
2022-08-26T17:42:48.500Z,59.64
2022-08-26T17:45:15.947Z,60.49
2022-08-26T17:47:43.543Z,60.88
2022-08-26T17:50:14.970Z,60.53
2022-08-26T17:52:42.196Z,60.89
2022-08-26T17:55:12.723Z,61.08
2022-08-26T17:57:40.549Z,61.88
2022-08-26T18:00:16.715Z,62.06
2022-08-26T18:02:43.936Z,62.10
2022-08-26T18:05:14.292Z,62.40
2022-08-26T18:07:44.056Z,61.90
2022-08-26T18:10:14.057Z,61.98
2022-08-26T18:12:41.576Z,62.74
2022-08-26T18:15:11.180Z,63.51
2022-08-26T18:17:39.320Z,63.38
2022-08-26T18:20:13.229Z,63.61
2022-08-26T18:22:41.958Z,63.73
2022-08-26T18:25:09.915Z,63.78
2022-08-26T18:27:37.874Z,63.89
2022-08-26T18:30:14.571Z,64.72
2022-08-26T18:32:43.316Z,64.69
2022-08-26T18:35:11.560Z,64.37
2022-08-26T18:37:38.654Z,65.02
2022-08-26T18:40:09.456Z,65.61
2022-08-26T18:42:36.375Z,66.45
2022-08-26T18:45:08.716Z,65.71
2022-08-26T18:47:36.013Z,66.15
2022-08-26T18:50:04.910Z,66.07
2022-08-26T18:52:32.552Z,65.69
2022-08-26T18:54:59.507Z,65.47
2022-08-26T18:57:26.454Z,65.66
2022-08-26T18:59:53.347Z,65.67
2022-08-26T19:02:20.380Z,65.48
2022-08-26T19:04:47.396Z,65.20
2022-08-26T19:07:14.506Z,65.81
2022-08-26T19:09:41.482Z,65.57
2022-08-26T19:12:08.844Z,65.91
2022-08-26T19:14:36.440Z,66.83
2022-08-26T19:17:03.727Z,66.93
2022-08-26T19:19:31.661Z,67.64
2022-08-26T19:21:58.587Z,67.44
2022-08-26T19:24:25.990Z,67.26
2022-08-26T19:26:59.670Z,67.66
2022-08-26T19:29:33.484Z,67.98
2022-08-26T19:32:00.776Z,67.50
2022-08-26T19:34:29.234Z,68.23
2022-08-26T19:36:58.212Z,68.87
2022-08-26T19:39:26.503Z,69.20
2022-08-26T19:41:53.647Z,69.07
2022-08-26T19:44:41.605Z,69.72
2022-08-26T19:47:10.937Z,70.53
2022-08-26T19:49:39.031Z,71.19
2022-08-26T19:52:06.294Z,71.43
2022-08-26T19:54:34.103Z,72.70
2022-08-26T19:57:01.101Z,72.72
2022-08-26T19:59:29.064Z,71.95
2022-08-26T20:02:01.483Z,72.24
2022-08-26T20:04:30.691Z,71.31
2022-08-26T20:07:00.526Z,71.10
2022-08-26T20:09:32.665Z,71.57
2022-08-26T20:12:00.417Z,71.22
2022-08-26T20:14:28.491Z,71.60
2022-08-26T20:16:55.535Z,70.81
2022-08-26T20:19:41.361Z,70.89
2022-08-26T20:22:08.752Z,71.40
2022-08-26T20:24:35.706Z,71.03
2022-08-26T20:27:07.680Z,71.28
2022-08-26T20:29:36.836Z,70.63
2022-08-26T20:32:06.390Z,70.61
2022-08-26T20:34:34.772Z,70.57
2022-08-26T20:37:02.725Z,70.45
2022-08-26T20:39:29.850Z,70.45
2022-08-26T20:41:57.792Z,70.39
2022-08-26T20:44:25.571Z,70.38
2022-08-26T20:46:52.623Z,69.96
2022-08-26T20:49:19.788Z,70.57
2022-08-26T20:51:51.359Z,70.08
2022-08-26T20:54:22.124Z,70.55
2022-08-26T20:56:51.814Z,70.66
2022-08-26T20:59:19.339Z,70.88
2022-08-26T21:01:47.432Z,70.55
2022-08-26T21:04:19.444Z,70.80
2022-08-26T21:06:52.407Z,70.75
2022-08-26T21:09:22.150Z,71.23
2022-08-26T21:11:50.500Z,71.32
2022-08-26T21:14:18.932Z,71.35
2022-08-26T21:16:47.093Z,70.92
2022-08-26T21:19:17.510Z,71.53
2022-08-26T21:21:46.684Z,71.07
2022-08-26T21:24:14.144Z,70.26
2022-08-26T21:26:41.197Z,70.55
2022-08-26T21:29:09.937Z,70.26
2022-08-26T21:31:42.150Z,70.17
2022-08-26T21:34:12.139Z,69.44
2022-08-26T21:36:39.052Z,70.07
2022-08-26T21:39:11.253Z,70.05
2022-08-26T21:41:40.319Z,69.60
2022-08-26T21:44:07.704Z,69.35
2022-08-26T21:46:37.148Z,69.06
2022-08-26T21:49:07.651Z,69.52
2022-08-26T21:51:38.956Z,69.29
2022-08-26T21:54:10.828Z,69.81
2022-08-26T21:56:44.176Z,70.57
2022-08-26T21:59:12.147Z,70.75
2022-08-26T22:01:39.143Z,70.74
2022-08-26T22:04:09.065Z,70.35
2022-08-26T22:06:45.530Z,70.37
2022-08-26T22:09:15.009Z,70.34
2022-08-26T22:11:42.029Z,70.51
2022-08-26T22:14:09.580Z,69.95
2022-08-26T22:16:36.589Z,69.15
2022-08-26T22:19:03.569Z,68.89
2022-08-26T22:21:30.567Z,68.89
2022-08-26T22:23:58.570Z,68.07
2022-08-26T22:26:30.143Z,68.33
2022-08-26T22:28:59.500Z,68.13
2022-08-26T22:31:37.159Z,67.67
2022-08-26T22:34:19.449Z,67.39
2022-08-26T22:36:48.928Z,67.86
2022-08-26T22:39:21.315Z,67.68
2022-08-26T22:41:49.411Z,67.64
2022-08-26T22:44:18.256Z,68.03
2022-08-26T22:46:46.237Z,68.00
2022-08-26T22:49:17.426Z,67.85
2022-08-26T22:51:45.583Z,67.83
2022-08-26T22:54:13.989Z,67.82
2022-08-26T22:56:41.493Z,67.59
2022-08-26T22:59:08.900Z,67.57
2022-08-26T23:01:42.580Z,67.51
2022-08-26T23:04:10.915Z,67.51
2022-08-26T23:06:41.768Z,67.46
2022-08-26T23:09:09.394Z,67.91
2022-08-26T23:11:36.364Z,67.27
2022-08-26T23:14:06.317Z,67.10
2022-08-26T23:16:41.534Z,67.70
2022-08-26T23:19:11.336Z,67.64
2022-08-26T23:21:39.055Z,67.14
2022-08-26T23:24:07.601Z,66.92
2022-08-26T23:26:35.206Z,67.00
2022-08-26T23:29:02.837Z,66.95
2022-08-26T23:31:29.840Z,66.85
2022-08-26T23:34:15.473Z,66.93
2022-08-26T23:36:44.144Z,66.93
2022-08-26T23:39:14.035Z,67.35
2022-08-26T23:41:41.637Z,66.96
2022-08-26T23:44:08.528Z,66.92
2022-08-26T23:46:35.993Z,67.56
2022-08-26T23:49:04.119Z,66.96
2022-08-26T23:51:50.099Z,67.86
2022-08-26T23:54:17.088Z,67.76
2022-08-26T23:56:44.206Z,68.84
2022-08-26T23:59:11.447Z,69.34
